sensor_id;sensor_type;location;lat;lon;timestamp;pressure;altitude;pressure_sealevel;temperature;humidity
62548;BME280;48602;45.192;5.722;2023-02-14T00:00:10;101089.56;;;5.81;58.12
62548;BME280;48602;45.192;5.722;2023-02-14T00:02:36;101089.50;;;5.78;58.08
62548;BME280;48602;45.192;5.722;2023-02-14T00:05:01;101082.50;;;5.75;58.26
62548;BME280;48602;45.192;5.722;2023-02-14T00:07:27;101085.09;;;5.72;58.66
62548;BME280;48602;45.192;5.722;2023-02-14T00:09:52;101092.91;;;5.71;58.47
62548;BME280;48602;45.192;5.722;2023-02-14T00:12:17;101087.66;;;5.66;58.59
62548;BME280;48602;45.192;5.722;2023-02-14T00:14:43;101091.97;;;5.64;58.83
62548;BME280;48602;45.192;5.722;2023-02-14T00:17:27;101089.34;;;5.63;58.73
62548;BME280;48602;45.192;5.722;2023-02-14T00:19:52;101086.69;;;5.59;58.78
62548;BME280;48602;45.192;5.722;2023-02-14T00:22:18;101084.88;;;5.55;58.79
62548;BME280;48602;45.192;5.722;2023-02-14T00:24:43;101084.88;;;5.54;58.58
62548;BME280;48602;45.192;5.722;2023-02-14T00:27:08;101084.88;;;5.51;58.84
62548;BME280;48602;45.192;5.722;2023-02-14T00:29:34;101080.47;;;5.48;59.17
62548;BME280;48602;45.192;5.722;2023-02-14T00:31:59;101075.16;;;5.44;59.17
62548;BME280;48602;45.192;5.722;2023-02-14T00:34:25;101083.00;;;5.44;59.16
62548;BME280;48602;45.192;5.722;2023-02-14T00:36:51;101092.56;;;5.42;59.26
62548;BME280;48602;45.192;5.722;2023-02-14T00:39:17;101082.94;;;5.39;59.17
62548;BME280;48602;45.192;5.722;2023-02-14T00:41:43;101084.66;;;5.37;59.08
62548;BME280;48602;45.192;5.722;2023-02-14T00:44:09;101088.16;;;5.36;59.36
62548;BME280;48602;45.192;5.722;2023-02-14T00:46:36;101094.25;;;5.35;59.68
62548;BME280;48602;45.192;5.722;2023-02-14T00:49:01;101087.25;;;5.33;59.67
62548;BME280;48602;45.192;5.722;2023-02-14T00:51:27;101083.75;;;5.32;59.31
62548;BME280;48602;45.192;5.722;2023-02-14T00:53:53;101084.63;;;5.31;59.33
62548;BME280;48602;45.192;5.722;2023-02-14T00:56:19;101088.09;;;5.30;59.67
62548;BME280;48602;45.192;5.722;2023-02-14T00:58:45;101088.97;;;5.31;59.46
62548;BME280;48602;45.192;5.722;2023-02-14T01:01:11;101090.69;;;5.29;59.46
62548;BME280;48602;45.192;5.722;2023-02-14T01:03:37;101084.56;;;5.28;59.83
62548;BME280;48602;45.192;5.722;2023-02-14T01:06:03;101088.91;;;5.28;59.80
62548;BME280;48602;45.192;5.722;2023-02-14T01:08:29;101080.16;;;5.25;59.71
62548;BME280;48602;45.192;5.722;2023-02-14T01:10:55;101085.38;;;5.24;59.98
62548;BME280;48602;45.192;5.722;2023-02-14T01:13:21;101087.97;;;5.22;59.60
62548;BME280;48602;45.192;5.722;2023-02-14T01:15:49;101090.56;;;5.21;59.82
62548;BME280;48602;45.192;5.722;2023-02-14T01:18:15;101087.06;;;5.20;59.76
62548;BME280;48602;45.192;5.722;2023-02-14T01:20:41;101084.47;;;5.19;59.85
62548;BME280;48602;45.192;5.722;2023-02-14T01:23:06;101087.06;;;5.19;59.92
62548;BME280;48602;45.192;5.722;2023-02-14T01:25:33;101083.59;;;5.18;59.92
62548;BME280;48602;45.192;5.722;2023-02-14T01:28:00;101085.31;;;5.18;59.92
62548;BME280;48602;45.192;5.722;2023-02-14T01:30:25;101083.59;;;5.18;59.79
62548;BME280;48602;45.192;5.722;2023-02-14T01:32:51;101080.94;;;5.17;59.92
62548;BME280;48602;45.192;5.722;2023-02-14T01:35:16;101099.28;;;5.18;59.78
62548;BME280;48602;45.192;5.722;2023-02-14T01:37:42;101087.94;;;5.18;59.67
62548;BME280;48602;45.192;5.722;2023-02-14T01:40:09;101083.53;;;5.15;60.11
62548;BME280;48602;45.192;5.722;2023-02-14T01:42:35;101092.22;;;5.14;60.15
62548;BME280;48602;45.192;5.722;2023-02-14T01:45:22;101086.97;;;5.11;60.15
62548;BME280;48602;45.192;5.722;2023-02-14T01:47:52;101086.06;;;5.09;59.99
62548;BME280;48602;45.192;5.722;2023-02-14T01:50:33;101079.94;;;5.07;60.17
62548;BME280;48602;45.192;5.722;2023-02-14T01:53:25;101082.50;;;5.04;60.37
62548;BME280;48602;45.192;5.722;2023-02-14T01:56:05;101072.88;;;5.00;60.25
62548;BME280;48602;45.192;5.722;2023-02-14T01:58:33;101078.94;;;4.98;60.73
62548;BME280;48602;45.192;5.722;2023-02-14T02:01:02;101077.13;;;4.94;60.52
62548;BME280;48602;45.192;5.722;2023-02-14T02:03:49;101077.09;;;4.92;60.67
62548;BME280;48602;45.192;5.722;2023-02-14T02:06:25;101075.31;;;4.89;61.05
62548;BME280;48602;45.192;5.722;2023-02-14T02:11:46;101057.00;;;4.88;60.68
62548;BME280;48602;45.192;5.722;2023-02-14T02:14:15;101066.56;;;4.87;60.57
62548;BME280;48602;45.192;5.722;2023-02-14T02:20:00;101064.81;;;4.83;60.75
62548;BME280;48602;45.192;5.722;2023-02-14T02:44:52;101058.50;;;4.71;61.35
62548;BME280;48602;45.192;5.722;2023-02-14T02:48:20;101060.22;;;4.70;61.28
62548;BME280;48602;45.192;5.722;2023-02-14T02:50:47;101070.69;;;4.69;61.45
62548;BME280;48602;45.192;5.722;2023-02-14T02:53:50;101066.25;;;4.65;61.49
62548;BME280;48602;45.192;5.722;2023-02-14T02:56:22;101062.75;;;4.63;61.67
62548;BME280;48602;45.192;5.722;2023-02-14T03:02:00;101060.84;;;4.54;61.77
62548;BME280;48602;45.192;5.722;2023-02-14T03:04:28;101066.06;;;4.51;61.87
62548;BME280;48602;45.192;5.722;2023-02-14T03:07:12;101061.66;;;4.48;61.88
62548;BME280;48602;45.192;5.722;2023-02-14T03:09:58;101053.81;;;4.47;61.84
62548;BME280;48602;45.192;5.722;2023-02-14T03:20:59;101062.38;;;4.40;62.27
62548;BME280;48602;45.192;5.722;2023-02-14T03:23:44;101072.75;;;4.37;62.22
62548;BME280;48602;45.192;5.722;2023-02-14T03:26:20;101064.03;;;4.33;62.47
62548;BME280;48602;45.192;5.722;2023-02-14T03:29:07;101067.47;;;4.31;62.51
62548;BME280;48602;45.192;5.722;2023-02-14T03:31:56;101070.88;;;4.27;62.49
62548;BME280;48602;45.192;5.722;2023-02-14T03:34:37;101071.66;;;4.22;62.91
62548;BME280;48602;45.192;5.722;2023-02-14T03:37:16;101074.22;;;4.19;62.44
62548;BME280;48602;45.192;5.722;2023-02-14T03:40:02;101072.44;;;4.15;62.88
62548;BME280;48602;45.192;5.722;2023-02-14T03:42:47;101069.75;;;4.11;63.08
62548;BME280;48602;45.192;5.722;2023-02-14T03:45:24;101072.28;;;4.08;63.20
62548;BME280;48602;45.192;5.722;2023-02-14T03:47:54;101064.44;;;4.06;63.29
62548;BME280;48602;45.192;5.722;2023-02-14T03:50:20;101066.13;;;4.04;63.39
62548;BME280;48602;45.192;5.722;2023-02-14T03:52:49;101063.50;;;4.03;63.25
62548;BME280;48602;45.192;5.722;2023-02-14T03:55:19;101064.34;;;4.00;63.40
62548;BME280;48602;45.192;5.722;2023-02-14T03:58:42;101069.50;;;3.97;63.19
62548;BME280;48602;45.192;5.722;2023-02-14T04:01:05;101064.22;;;3.94;63.28
62548;BME280;48602;45.192;5.722;2023-02-14T04:03:34;101064.19;;;3.93;63.51
62548;BME280;48602;45.192;5.722;2023-02-14T04:06:03;101066.78;;;3.91;63.64
62548;BME280;48602;45.192;5.722;2023-02-14T04:08:29;101066.75;;;3.90;63.73
62548;BME280;48602;45.192;5.722;2023-02-14T04:10:57;101069.31;;;3.88;63.79
62548;BME280;48602;45.192;5.722;2023-02-14T04:13:24;101067.53;;;3.85;63.63
62548;BME280;48602;45.192;5.722;2023-02-14T04:15:50;101067.53;;;3.84;63.77
62548;BME280;48602;45.192;5.722;2023-02-14T04:18:15;101065.78;;;3.83;63.65
62548;BME280;48602;45.192;5.722;2023-02-14T04:20:59;101060.53;;;3.81;63.91
62548;BME280;48602;45.192;5.722;2023-02-14T04:23:25;101055.25;;;3.78;63.77
62548;BME280;48602;45.192;5.722;2023-02-14T04:25:51;101051.72;;;3.76;64.07
62548;BME280;48602;45.192;5.722;2023-02-14T04:28:16;101061.25;;;3.74;64.81
62548;BME280;48602;45.192;5.722;2023-02-14T04:30:41;101060.31;;;3.71;64.19
62548;BME280;48602;45.192;5.722;2023-02-14T04:33:07;101057.66;;;3.69;64.13
62548;BME280;48602;45.192;5.722;2023-02-14T04:35:33;101061.16;;;3.68;64.38
62548;BME280;48602;45.192;5.722;2023-02-14T04:38:00;101056.78;;;3.67;64.33
62548;BME280;48602;45.192;5.722;2023-02-14T04:40:26;101051.56;;;3.67;64.44
62548;BME280;48602;45.192;5.722;2023-02-14T04:42:51;101061.13;;;3.67;64.48
62548;BME280;48602;45.192;5.722;2023-02-14T04:45:17;101061.97;;;3.66;64.43
62548;BME280;48602;45.192;5.722;2023-02-14T04:47:42;101062.00;;;3.67;64.99
62548;BME280;48602;45.192;5.722;2023-02-14T04:50:08;101055.06;;;3.68;64.65
62548;BME280;48602;45.192;5.722;2023-02-14T04:52:33;101057.66;;;3.69;64.59
62548;BME280;48602;45.192;5.722;2023-02-14T04:54:59;101056.78;;;3.69;64.45
62548;BME280;48602;45.192;5.722;2023-02-14T04:57:24;101061.16;;;3.70;64.66
62548;BME280;48602;45.192;5.722;2023-02-14T04:59:50;101058.53;;;3.70;64.82
62548;BME280;48602;45.192;5.722;2023-02-14T05:02:15;101059.41;;;3.69;64.85
62548;BME280;48602;45.192;5.722;2023-02-14T05:04:40;101054.19;;;3.69;64.75
62548;BME280;48602;45.192;5.722;2023-02-14T05:07:06;101057.66;;;3.68;65.10
62548;BME280;48602;45.192;5.722;2023-02-14T05:09:31;101056.75;;;3.66;64.93
62548;BME280;48602;45.192;5.722;2023-02-14T05:11:57;101058.44;;;3.64;64.93
62548;BME280;48602;45.192;5.722;2023-02-14T05:14:22;101052.31;;;3.62;64.99
62548;BME280;48602;45.192;5.722;2023-02-14T05:16:48;101061.00;;;3.61;65.14
62548;BME280;48602;45.192;5.722;2023-02-14T05:19:13;101055.69;;;3.56;65.11
62548;BME280;48602;45.192;5.722;2023-02-14T05:21:38;101040.84;;;3.54;65.12
62548;BME280;48602;45.192;5.722;2023-02-14T05:24:05;101048.59;;;3.49;65.47
62548;BME280;48602;45.192;5.722;2023-02-14T05:26:30;101057.25;;;3.46;65.43
62548;BME280;48602;45.192;5.722;2023-02-14T05:28:56;101058.06;;;3.44;65.45
62548;BME280;48602;45.192;5.722;2023-02-14T05:31:21;101055.41;;;3.42;65.64
62548;BME280;48602;45.192;5.722;2023-02-14T05:33:47;101064.97;;;3.42;65.72
62548;BME280;48602;45.192;5.722;2023-02-14T05:36:12;101071.00;;;3.39;65.41
62548;BME280;48602;45.192;5.722;2023-02-14T05:38:38;101060.56;;;3.39;65.86
62548;BME280;48602;45.192;5.722;2023-02-14T05:41:03;101057.94;;;3.38;65.81
62548;BME280;48602;45.192;5.722;2023-02-14T05:43:29;101061.38;;;3.37;65.61
62548;BME280;48602;45.192;5.722;2023-02-14T05:45:55;101059.66;;;3.37;65.73
62548;BME280;48602;45.192;5.722;2023-02-14T05:48:21;101063.09;;;3.36;65.71
62548;BME280;48602;45.192;5.722;2023-02-14T05:50:47;101061.34;;;3.35;65.85
62548;BME280;48602;45.192;5.722;2023-02-14T05:53:13;101060.47;;;3.33;65.87
62548;BME280;48602;45.192;5.722;2023-02-14T05:55:38;101058.72;;;3.32;65.94
62548;BME280;48602;45.192;5.722;2023-02-14T05:58:04;101063.03;;;3.32;65.79
62548;BME280;48602;45.192;5.722;2023-02-14T06:00:29;101069.03;;;3.28;66.08
62548;BME280;48602;45.192;5.722;2023-02-14T06:02:55;101065.47;;;3.24;65.86
62548;BME280;48602;45.192;5.722;2023-02-14T06:05:20;101069.78;;;3.22;66.15
62548;BME280;48602;45.192;5.722;2023-02-14T06:07:48;101065.38;;;3.20;66.28
62548;BME280;48602;45.192;5.722;2023-02-14T06:10:24;101065.34;;;3.17;66.33
62548;BME280;48602;45.192;5.722;2023-02-14T06:12:51;101077.44;;;3.14;66.05
62548;BME280;48602;45.192;5.722;2023-02-14T06:15:17;101066.09;;;3.12;66.52
62548;BME280;48602;45.192;5.722;2023-02-14T06:17:43;101067.78;;;3.10;66.40
62548;BME280;48602;45.192;5.722;2023-02-14T06:20:09;101068.59;;;3.08;66.71
62548;BME280;48602;45.192;5.722;2023-02-14T06:22:36;101065.94;;;3.05;66.85
62548;BME280;48602;45.192;5.722;2023-02-14T06:25:02;101065.91;;;3.03;66.86
62548;BME280;48602;45.192;5.722;2023-02-14T06:27:28;101070.22;;;3.03;66.98
62548;BME280;48602;45.192;5.722;2023-02-14T06:29:54;101073.75;;;3.05;66.69
62548;BME280;48602;45.192;5.722;2023-02-14T06:32:20;101071.13;;;3.05;66.81
62548;BME280;48602;45.192;5.722;2023-02-14T06:34:45;101072.91;;;3.06;66.84
62548;BME280;48602;45.192;5.722;2023-02-14T06:37:11;101078.06;;;3.04;66.67
62548;BME280;48602;45.192;5.722;2023-02-14T06:39:36;101084.16;;;3.05;66.89
62548;BME280;48602;45.192;5.722;2023-02-14T06:42:01;101083.31;;;3.06;67.22
62548;BME280;48602;45.192;5.722;2023-02-14T06:44:27;101079.84;;;3.05;67.04
62548;BME280;48602;45.192;5.722;2023-02-14T06:46:52;101085.03;;;3.05;66.78
62548;BME280;48602;45.192;5.722;2023-02-14T06:49:18;101078.06;;;3.04;66.85
62548;BME280;48602;45.192;5.722;2023-02-14T06:51:43;101087.66;;;3.05;66.90
62548;BME280;48602;45.192;5.722;2023-02-14T06:54:08;101086.81;;;3.06;67.01
62548;BME280;48602;45.192;5.722;2023-02-14T06:56:34;101092.03;;;3.06;67.30
62548;BME280;48602;45.192;5.722;2023-02-14T06:58:59;101086.84;;;3.08;67.36
62548;BME280;48602;45.192;5.722;2023-02-14T07:01:25;101092.06;;;3.08;67.10
62548;BME280;48602;45.192;5.722;2023-02-14T07:03:51;101092.91;;;3.07;67.10
62548;BME280;48602;45.192;5.722;2023-02-14T07:06:16;101090.28;;;3.07;67.27
62548;BME280;48602;45.192;5.722;2023-02-14T07:08:41;101084.25;;;3.08;67.18
62548;BME280;48602;45.192;5.722;2023-02-14T07:11:07;101087.69;;;3.07;67.43
62548;BME280;48602;45.192;5.722;2023-02-14T07:13:32;101098.97;;;3.06;67.53
62548;BME280;48602;45.192;5.722;2023-02-14T07:15:58;101091.13;;;3.06;67.37
62548;BME280;48602;45.192;5.722;2023-02-14T07:18:23;101099.81;;;3.05;67.58
62548;BME280;48602;45.192;5.722;2023-02-14T07:20:49;101095.41;;;3.02;67.22
62548;BME280;48602;45.192;5.722;2023-02-14T07:23:15;101092.78;;;3.02;67.42
62548;BME280;48602;45.192;5.722;2023-02-14T07:25:40;101098.91;;;3.04;67.29
62548;BME280;48602;45.192;5.722;2023-02-14T07:28:06;101092.88;;;3.05;66.90
62548;BME280;48602;45.192;5.722;2023-02-14T07:30:31;101099.00;;;3.07;67.73
62548;BME280;48602;45.192;5.722;2023-02-14T07:32:57;101093.00;;;3.11;67.27
62548;BME280;48602;45.192;5.722;2023-02-14T07:35:22;101093.09;;;3.14;67.38
62548;BME280;48602;45.192;5.722;2023-02-14T07:37:51;101087.06;;;3.19;67.25
62548;BME280;48602;45.192;5.722;2023-02-14T07:40:17;101084.56;;;3.23;67.23
62548;BME280;48602;45.192;5.722;2023-02-14T07:42:44;101085.50;;;3.27;67.17
62548;BME280;48602;45.192;5.722;2023-02-14T07:45:16;101089.13;;;3.33;67.40
62548;BME280;48602;45.192;5.722;2023-02-14T07:47:41;101081.38;;;3.38;67.20
62548;BME280;48602;45.192;5.722;2023-02-14T07:50:07;101081.50;;;3.42;66.94
62548;BME280;48602;45.192;5.722;2023-02-14T07:52:32;101081.59;;;3.47;66.82
62548;BME280;48602;45.192;5.722;2023-02-14T07:54:58;101081.69;;;3.52;66.69
62548;BME280;48602;45.192;5.722;2023-02-14T07:57:23;101077.38;;;3.55;66.72
62548;BME280;48602;45.192;5.722;2023-02-14T07:59:48;101083.63;;;3.62;66.85
62548;BME280;48602;45.192;5.722;2023-02-14T08:02:14;101087.22;;;3.68;66.62
62548;BME280;48602;45.192;5.722;2023-02-14T08:04:39;101088.22;;;3.75;66.41
62548;BME280;48602;45.192;5.722;2023-02-14T08:07:05;101083.13;;;3.81;66.62
62548;BME280;48602;45.192;5.722;2023-02-14T08:09:30;101082.34;;;3.85;66.35
62548;BME280;48602;45.192;5.722;2023-02-14T08:11:57;101076.31;;;3.91;66.37
62548;BME280;48602;45.192;5.722;2023-02-14T08:14:42;101080.81;;;3.98;66.28
62548;BME280;48602;45.192;5.722;2023-02-14T08:17:08;101078.28;;;4.04;66.34
62548;BME280;48602;45.192;5.722;2023-02-14T08:19:37;101078.38;;;4.08;66.34
62548;BME280;48602;45.192;5.722;2023-02-14T08:22:03;101073.31;;;4.16;66.14
62548;BME280;48602;45.192;5.722;2023-02-14T08:24:29;101070.75;;;4.20;66.09
62548;BME280;48602;45.192;5.722;2023-02-14T08:26:54;101066.53;;;4.27;65.67
62548;BME280;48602;45.192;5.722;2023-02-14T08:29:20;101064.94;;;4.35;65.66
62548;BME280;48602;45.192;5.722;2023-02-14T08:31:45;101070.25;;;4.43;65.28
62548;BME280;48602;45.192;5.722;2023-02-14T08:34:12;101065.16;;;4.49;65.28
62548;BME280;48602;45.192;5.722;2023-02-14T08:36:38;101060.91;;;4.57;65.03
62548;BME280;48602;45.192;5.722;2023-02-14T08:39:04;101058.44;;;4.66;64.76
62548;BME280;48602;45.192;5.722;2023-02-14T08:41:29;101063.75;;;4.72;64.90
62548;BME280;48602;45.192;5.722;2023-02-14T08:43:55;101067.38;;;4.80;64.68
62548;BME280;48602;45.192;5.722;2023-02-14T08:46:20;101054.38;;;4.88;64.38
62548;BME280;48602;45.192;5.722;2023-02-14T08:48:46;101058.84;;;4.95;64.33
62548;BME280;48602;45.192;5.722;2023-02-14T08:51:13;101053.75;;;5.04;63.96
62548;BME280;48602;45.192;5.722;2023-02-14T08:53:39;101050.31;;;5.08;63.93
62548;BME280;48602;45.192;5.722;2023-02-14T08:56:10;101048.66;;;5.13;63.56
62548;BME280;48602;45.192;5.722;2023-02-14T08:58:36;101047.84;;;5.20;63.67
62548;BME280;48602;45.192;5.722;2023-02-14T09:01:10;101053.22;;;5.31;63.37
62548;BME280;48602;45.192;5.722;2023-02-14T09:03:36;101050.69;;;5.39;63.43
62548;BME280;48602;45.192;5.722;2023-02-14T09:06:07;101047.28;;;5.44;62.98
62548;BME280;48602;45.192;5.722;2023-02-14T09:08:33;101038.66;;;5.53;62.92
62548;BME280;48602;45.192;5.722;2023-02-14T09:11:14;101045.72;;;5.60;62.85
62548;BME280;48602;45.192;5.722;2023-02-14T09:13:41;101039.72;;;5.69;62.84
62548;BME280;48602;45.192;5.722;2023-02-14T09:16:07;101038.00;;;5.75;62.50
62548;BME280;48602;45.192;5.722;2023-02-14T09:18:34;101036.34;;;5.80;62.36
62548;BME280;48602;45.192;5.722;2023-02-14T09:20:59;101036.38;;;5.88;62.25
62548;BME280;48602;45.192;5.722;2023-02-14T09:23:25;101036.50;;;5.94;62.19
62548;BME280;48602;45.192;5.722;2023-02-14T09:25:51;101034.81;;;5.99;61.97
62548;BME280;48602;45.192;5.722;2023-02-14T09:28:16;101031.34;;;6.06;61.74
62548;BME280;48602;45.192;5.722;2023-02-14T09:30:41;101032.31;;;6.13;61.35
62548;BME280;48602;45.192;5.722;2023-02-14T09:33:07;101036.72;;;6.18;61.61
62548;BME280;48602;45.192;5.722;2023-02-14T09:35:32;101036.75;;;6.24;61.25
62548;BME280;48602;45.192;5.722;2023-02-14T09:38:16;101028.09;;;6.33;61.07
62548;BME280;48602;45.192;5.722;2023-02-14T09:40:43;101025.53;;;6.42;60.91
62548;BME280;48602;45.192;5.722;2023-02-14T09:46:00;101027.44;;;6.61;60.60
62548;BME280;48602;45.192;5.722;2023-02-14T09:48:37;101025.75;;;6.70;60.51
62548;BME280;48602;45.192;5.722;2023-02-14T09:51:15;101014.44;;;6.80;60.33
62548;BME280;48602;45.192;5.722;2023-02-14T09:53:47;101008.34;;;6.88;59.91
62548;BME280;48602;45.192;5.722;2023-02-14T09:56:34;101003.16;;;6.97;59.87
62548;BME280;48602;45.192;5.722;2023-02-14T09:59:18;101009.31;;;7.07;59.71
62548;BME280;48602;45.192;5.722;2023-02-14T10:04:52;101001.50;;;7.24;59.06
62548;BME280;48602;45.192;5.722;2023-02-14T10:07:29;100998.94;;;7.31;58.74
62548;BME280;48602;45.192;5.722;2023-02-14T10:10:13;100999.81;;;7.40;58.78
62548;BME280;48602;45.192;5.722;2023-02-14T10:13:02;100995.47;;;7.46;58.75
62548;BME280;48602;45.192;5.722;2023-02-14T10:15:33;100998.13;;;7.54;58.55
62548;BME280;48602;45.192;5.722;2023-02-14T10:18:10;100995.50;;;7.60;58.52
62548;BME280;48602;45.192;5.722;2023-02-14T10:20:41;100988.53;;;7.69;58.46
62548;BME280;48602;45.192;5.722;2023-02-14T10:23:31;100989.41;;;7.76;58.50
62548;BME280;48602;45.192;5.722;2023-02-14T10:26:04;100984.16;;;7.84;58.39
62548;BME280;48602;45.192;5.722;2023-02-14T10:28:32;100981.53;;;7.91;58.24
62548;BME280;48602;45.192;5.722;2023-02-14T10:31:23;100976.28;;;8.00;58.31
62548;BME280;48602;45.192;5.722;2023-02-14T10:36:31;100972.78;;;8.20;58.05
62548;BME280;48602;45.192;5.722;2023-02-14T10:42:52;100957.88;;;8.38;57.75
62548;BME280;48602;45.192;5.722;2023-02-14T10:50:55;100948.19;;;8.62;57.13
62548;BME280;48602;45.192;5.722;2023-02-14T10:53:46;100937.69;;;8.71;57.04
62548;BME280;48602;45.192;5.722;2023-02-14T10:58:44;100931.44;;;8.89;56.71
62548;BME280;48602;45.192;5.722;2023-02-14T11:01:16;100926.16;;;8.98;56.05
62548;BME280;48602;45.192;5.722;2023-02-14T11:04:02;100911.19;;;9.07;56.35
62548;BME280;48602;45.192;5.722;2023-02-14T11:06:31;100911.16;;;9.17;55.78
62548;BME280;48602;45.192;5.722;2023-02-14T11:08:57;100923.38;;;9.25;55.57
62548;BME280;48602;45.192;5.722;2023-02-14T11:11:27;100917.19;;;9.34;55.27
62548;BME280;48602;45.192;5.722;2023-02-14T11:13:55;100905.72;;;9.42;55.30
62548;BME280;48602;45.192;5.722;2023-02-14T11:16:34;100906.53;;;9.54;55.09
62548;BME280;48602;45.192;5.722;2023-02-14T11:19:20;100899.44;;;9.62;54.74
62548;BME280;48602;45.192;5.722;2023-02-14T11:21:48;100887.97;;;9.70;54.38
62548;BME280;48602;45.192;5.722;2023-02-14T11:24:38;100887.88;;;9.78;54.61
62548;BME280;48602;45.192;5.722;2023-02-14T11:32:12;100867.47;;;10.04;53.34
62548;BME280;48602;45.192;5.722;2023-02-14T11:35:05;100862.94;;;10.15;53.16
62548;BME280;48602;45.192;5.722;2023-02-14T11:37:42;100856.72;;;10.24;53.26
62548;BME280;48602;45.192;5.722;2023-02-14T11:40:27;100857.50;;;10.34;53.39
62548;BME280;48602;45.192;5.722;2023-02-14T11:42:54;100848.63;;;10.39;52.65
62548;BME280;48602;45.192;5.722;2023-02-14T11:45:34;100845.03;;;10.48;52.37
62548;BME280;48602;45.192;5.722;2023-02-14T11:48:23;100842.31;;;10.54;52.35
62548;BME280;48602;45.192;5.722;2023-02-14T11:51:12;100839.56;;;10.63;52.17
62548;BME280;48602;45.192;5.722;2023-02-14T11:53:50;100833.34;;;10.69;52.26
62548;BME280;48602;45.192;5.722;2023-02-14T11:56:19;100834.13;;;10.74;51.84
62548;BME280;48602;45.192;5.722;2023-02-14T11:59:00;100828.75;;;10.83;51.41
62548;BME280;48602;45.192;5.722;2023-02-14T12:01:32;100821.59;;;10.91;50.95
62548;BME280;48602;45.192;5.722;2023-02-14T12:04:03;100817.09;;;10.98;50.94
62548;BME280;48602;45.192;5.722;2023-02-14T12:06:32;100810.84;;;11.05;50.48
62548;BME280;48602;45.192;5.722;2023-02-14T12:11:36;100816.75;;;11.22;50.16
62548;BME280;48602;45.192;5.722;2023-02-14T12:14:02;100806.94;;;11.29;50.35
62548;BME280;48602;45.192;5.722;2023-02-14T12:16:39;100791.88;;;11.37;50.39
62548;BME280;48602;45.192;5.722;2023-02-14T12:19:12;100795.25;;;11.43;50.40
62548;BME280;48602;45.192;5.722;2023-02-14T12:21:47;100783.69;;;11.50;49.71
62548;BME280;48602;45.192;5.722;2023-02-14T12:24:17;100789.72;;;11.57;49.68
62548;BME280;48602;45.192;5.722;2023-02-14T12:29:47;100772.78;;;11.70;49.29
62548;BME280;48602;45.192;5.722;2023-02-14T12:32:23;100764.72;;;11.78;49.08
62548;BME280;48602;45.192;5.722;2023-02-14T12:34:51;100758.50;;;11.82;49.19
62548;BME280;48602;45.192;5.722;2023-02-14T12:51:36;100725.28;;;12.13;48.05
62548;BME280;48602;45.192;5.722;2023-02-14T13:20:57;100672.97;;;12.66;47.22
62548;BME280;48602;45.192;5.722;2023-02-14T13:23:34;100669.28;;;12.73;47.13
62548;BME280;48602;45.192;5.722;2023-02-14T13:28:44;100660.16;;;12.85;46.24
62548;BME280;48602;45.192;5.722;2023-02-14T13:31:12;100656.53;;;12.89;46.35
62548;BME280;48602;45.192;5.722;2023-02-14T13:34:01;100646.66;;;12.94;46.31
62548;BME280;48602;45.192;5.722;2023-02-14T13:36:28;100644.78;;;12.99;46.66
62548;BME280;48602;45.192;5.722;2023-02-14T13:38:56;100635.81;;;13.05;45.81
62548;BME280;48602;45.192;5.722;2023-02-14T13:41:23;100634.81;;;13.09;45.56
62548;BME280;48602;45.192;5.722;2023-02-14T13:46:19;100620.50;;;13.17;45.45
62548;BME280;48602;45.192;5.722;2023-02-14T13:48:59;100620.41;;;13.22;46.06
62548;BME280;48602;45.192;5.722;2023-02-14T13:51:47;100618.47;;;13.27;45.57
62548;BME280;48602;45.192;5.722;2023-02-14T13:54:34;100615.75;;;13.30;45.52
62548;BME280;48602;45.192;5.722;2023-02-14T13:57:06;100613.84;;;13.35;45.03
62548;BME280;48602;45.192;5.722;2023-02-14T14:26:40;100578.19;;;13.76;43.34
62548;BME280;48602;45.192;5.722;2023-02-14T14:29:15;100570.16;;;13.79;43.17
62548;BME280;48602;45.192;5.722;2023-02-14T14:31:42;100566.56;;;13.82;43.21
62548;BME280;48602;45.192;5.722;2023-02-14T14:34:16;100565.56;;;13.86;43.26
62548;BME280;48602;45.192;5.722;2023-02-14T14:36:42;100569.94;;;13.87;43.48
62548;BME280;48602;45.192;5.722;2023-02-14T14:39:09;100558.31;;;13.91;43.54
62548;BME280;48602;45.192;5.722;2023-02-14T14:41:34;100567.03;;;13.94;43.49
62548;BME280;48602;45.192;5.722;2023-02-14T14:44:00;100566.09;;;13.97;43.24
62548;BME280;48602;45.192;5.722;2023-02-14T14:46:26;100564.16;;;14.02;42.80
62548;BME280;48602;45.192;5.722;2023-02-14T14:48:52;100565.81;;;14.06;43.01
62548;BME280;48602;45.192;5.722;2023-02-14T14:51:31;100559.53;;;14.09;42.86
62548;BME280;48602;45.192;5.722;2023-02-14T14:54:14;100554.94;;;14.14;42.77
62548;BME280;48602;45.192;5.722;2023-02-14T14:59:25;100545.03;;;14.20;42.85
62548;BME280;48602;45.192;5.722;2023-02-14T15:01:51;100544.84;;;14.25;42.57
62548;BME280;48602;45.192;5.722;2023-02-14T15:04:19;100543.88;;;14.27;42.34
62548;BME280;48602;45.192;5.722;2023-02-14T15:06:49;100546.44;;;14.30;42.78
62548;BME280;48602;45.192;5.722;2023-02-14T15:09:19;100539.31;;;14.32;42.85
62548;BME280;48602;45.192;5.722;2023-02-14T15:11:45;100543.66;;;14.35;42.47
62548;BME280;48602;45.192;5.722;2023-02-14T15:14:33;100536.50;;;14.37;42.59
62548;BME280;48602;45.192;5.722;2023-02-14T15:17:03;100537.34;;;14.39;42.77
62548;BME280;48602;45.192;5.722;2023-02-14T15:19:36;100532.94;;;14.38;42.98
62548;BME280;48602;45.192;5.722;2023-02-14T15:22:15;100535.56;;;14.40;42.66
62548;BME280;48602;45.192;5.722;2023-02-14T15:24:43;100535.50;;;14.41;42.55
62548;BME280;48602;45.192;5.722;2023-02-14T15:27:17;100529.28;;;14.42;42.75
62548;BME280;48602;45.192;5.722;2023-02-14T15:29:58;100527.53;;;14.41;42.52
62548;BME280;48602;45.192;5.722;2023-02-14T15:32:28;100523.19;;;14.40;42.62
62548;BME280;48602;45.192;5.722;2023-02-14T15:34:55;100524.06;;;14.41;42.54
62548;BME280;48602;45.192;5.722;2023-02-14T15:37:22;100517.88;;;14.40;42.36
62548;BME280;48602;45.192;5.722;2023-02-14T15:39:51;100517.81;;;14.42;42.43